sensor_id;sensor_type;location;lat;lon;timestamp;temperature;humidity
56256;DHT22;57229;51.432;-2.598;2024-03-02T00:01:10;4.20;99.90
56256;DHT22;57229;51.432;-2.598;2024-03-02T00:03:37;4.20;99.90
56256;DHT22;57229;51.432;-2.598;2024-03-02T00:06:03;4.20;99.90
56256;DHT22;57229;51.432;-2.598;2024-03-02T00:08:29;4.20;99.90
56256;DHT22;57229;51.432;-2.598;2024-03-02T00:10:59;4.70;99.90
56256;DHT22;57229;51.432;-2.598;2024-03-02T00:13:25;4.30;99.90
56256;DHT22;57229;51.432;-2.598;2024-03-02T00:15:55;4.20;99.90
56256;DHT22;57229;51.432;-2.598;2024-03-02T00:18:31;4.30;99.90
56256;DHT22;57229;51.432;-2.598;2024-03-02T00:20:57;4.20;99.90
56256;DHT22;57229;51.432;-2.598;2024-03-02T00:23:24;4.20;99.90
56256;DHT22;57229;51.432;-2.598;2024-03-02T00:25:52;4.30;99.90
56256;DHT22;57229;51.432;-2.598;2024-03-02T00:28:29;4.30;99.90
56256;DHT22;57229;51.432;-2.598;2024-03-02T00:33:48;4.30;99.90
56256;DHT22;57229;51.432;-2.598;2024-03-02T00:36:16;4.30;99.90
56256;DHT22;57229;51.432;-2.598;2024-03-02T00:38:49;4.30;99.90
56256;DHT22;57229;51.432;-2.598;2024-03-02T00:41:19;4.40;99.90
56256;DHT22;57229;51.432;-2.598;2024-03-02T00:46:26;4.50;99.90
56256;DHT22;57229;51.432;-2.598;2024-03-02T00:48:57;4.80;99.90
56256;DHT22;57229;51.432;-2.598;2024-03-02T00:51:25;4.60;99.90
56256;DHT22;57229;51.432;-2.598;2024-03-02T00:53:52;4.60;99.90
56256;DHT22;57229;51.432;-2.598;2024-03-02T00:56:20;4.60;99.90
56256;DHT22;57229;51.432;-2.598;2024-03-02T00:58:46;4.60;99.90
56256;DHT22;57229;51.432;-2.598;2024-03-02T01:01:12;4.60;99.90
56256;DHT22;57229;51.432;-2.598;2024-03-02T01:03:37;4.60;99.90
56256;DHT22;57229;51.432;-2.598;2024-03-02T01:06:04;4.70;99.90
56256;DHT22;57229;51.432;-2.598;2024-03-02T01:08:30;4.70;99.90
56256;DHT22;57229;51.432;-2.598;2024-03-02T01:10:55;4.70;99.90
56256;DHT22;57229;51.432;-2.598;2024-03-02T01:13:22;4.70;99.90
56256;DHT22;57229;51.432;-2.598;2024-03-02T01:15:48;4.80;99.90
56256;DHT22;57229;51.432;-2.598;2024-03-02T01:18:14;4.80;99.90
56256;DHT22;57229;51.432;-2.598;2024-03-02T01:20:40;5.00;99.90
56256;DHT22;57229;51.432;-2.598;2024-03-02T01:23:05;4.80;99.90
56256;DHT22;57229;51.432;-2.598;2024-03-02T01:25:31;4.80;99.90
56256;DHT22;57229;51.432;-2.598;2024-03-02T01:27:56;4.80;99.90
56256;DHT22;57229;51.432;-2.598;2024-03-02T01:30:22;4.80;99.90
56256;DHT22;57229;51.432;-2.598;2024-03-02T01:32:48;4.90;99.90
56256;DHT22;57229;51.432;-2.598;2024-03-02T01:35:13;4.90;99.90
56256;DHT22;57229;51.432;-2.598;2024-03-02T01:37:40;4.90;99.90
56256;DHT22;57229;51.432;-2.598;2024-03-02T01:40:06;5.00;99.90
56256;DHT22;57229;51.432;-2.598;2024-03-02T01:42:39;5.00;99.90
56256;DHT22;57229;51.432;-2.598;2024-03-02T01:45:06;5.00;99.90
56256;DHT22;57229;51.432;-2.598;2024-03-02T01:47:32;5.00;99.90
56256;DHT22;57229;51.432;-2.598;2024-03-02T01:49:58;5.00;99.90
56256;DHT22;57229;51.432;-2.598;2024-03-02T01:52:24;4.90;99.90
56256;DHT22;57229;51.432;-2.598;2024-03-02T01:54:50;5.70;99.90
56256;DHT22;57229;51.432;-2.598;2024-03-02T01:57:16;4.90;99.90
56256;DHT22;57229;51.432;-2.598;2024-03-02T01:59:41;4.90;99.90
56256;DHT22;57229;51.432;-2.598;2024-03-02T02:02:07;4.90;99.90
56256;DHT22;57229;51.432;-2.598;2024-03-02T02:04:33;4.80;99.90
56256;DHT22;57229;51.432;-2.598;2024-03-02T02:06:59;4.90;99.90
56256;DHT22;57229;51.432;-2.598;2024-03-02T02:09:25;4.90;99.90
56256;DHT22;57229;51.432;-2.598;2024-03-02T02:11:51;4.90;99.90
56256;DHT22;57229;51.432;-2.598;2024-03-02T02:14:17;4.90;99.90
56256;DHT22;57229;51.432;-2.598;2024-03-02T02:16:43;4.90;99.90
56256;DHT22;57229;51.432;-2.598;2024-03-02T02:19:08;5.00;99.90
56256;DHT22;57229;51.432;-2.598;2024-03-02T02:21:35;4.90;99.90
56256;DHT22;57229;51.432;-2.598;2024-03-02T02:24:00;4.90;99.90
56256;DHT22;57229;51.432;-2.598;2024-03-02T02:26:28;4.80;99.90
56256;DHT22;57229;51.432;-2.598;2024-03-02T02:28:54;4.80;99.90
56256;DHT22;57229;51.432;-2.598;2024-03-02T02:31:19;4.80;99.90
56256;DHT22;57229;51.432;-2.598;2024-03-02T02:33:45;4.80;99.90
56256;DHT22;57229;51.432;-2.598;2024-03-02T02:36:11;4.80;99.90
56256;DHT22;57229;51.432;-2.598;2024-03-02T02:38:40;4.80;99.90
56256;DHT22;57229;51.432;-2.598;2024-03-02T02:41:08;4.70;99.90
56256;DHT22;57229;51.432;-2.598;2024-03-02T02:43:33;4.70;99.90
56256;DHT22;57229;51.432;-2.598;2024-03-02T02:45:59;4.70;99.90
56256;DHT22;57229;51.432;-2.598;2024-03-02T02:48:24;4.70;99.90
56256;DHT22;57229;51.432;-2.598;2024-03-02T02:50:50;5.20;99.90
56256;DHT22;57229;51.432;-2.598;2024-03-02T02:53:16;4.70;99.90
56256;DHT22;57229;51.432;-2.598;2024-03-02T02:55:42;4.70;99.90
56256;DHT22;57229;51.432;-2.598;2024-03-02T02:58:09;4.70;99.90
56256;DHT22;57229;51.432;-2.598;2024-03-02T03:00:34;4.70;99.90
56256;DHT22;57229;51.432;-2.598;2024-03-02T03:03:02;4.80;99.90
56256;DHT22;57229;51.432;-2.598;2024-03-02T03:05:27;4.80;99.90
56256;DHT22;57229;51.432;-2.598;2024-03-02T03:07:53;4.80;99.90
56256;DHT22;57229;51.432;-2.598;2024-03-02T03:10:19;4.80;99.90
56256;DHT22;57229;51.432;-2.598;2024-03-02T03:12:47;4.90;99.90
56256;DHT22;57229;51.432;-2.598;2024-03-02T03:15:13;4.90;99.90
56256;DHT22;57229;51.432;-2.598;2024-03-02T03:17:39;5.00;99.90
56256;DHT22;57229;51.432;-2.598;2024-03-02T03:20:06;5.00;99.90
56256;DHT22;57229;51.432;-2.598;2024-03-02T03:22:35;4.90;99.90
56256;DHT22;57229;51.432;-2.598;2024-03-02T03:25:01;4.90;99.90
56256;DHT22;57229;51.432;-2.598;2024-03-02T03:27:27;4.90;99.90
56256;DHT22;57229;51.432;-2.598;2024-03-02T03:29:53;4.90;99.90
56256;DHT22;57229;51.432;-2.598;2024-03-02T03:32:19;5.00;99.90
56256;DHT22;57229;51.432;-2.598;2024-03-02T03:34:45;4.90;99.90
56256;DHT22;57229;51.432;-2.598;2024-03-02T03:37:11;4.90;99.90
56256;DHT22;57229;51.432;-2.598;2024-03-02T03:39:36;4.90;99.90
56256;DHT22;57229;51.432;-2.598;2024-03-02T03:42:02;4.90;99.90
56256;DHT22;57229;51.432;-2.598;2024-03-02T03:44:28;4.90;99.90
56256;DHT22;57229;51.432;-2.598;2024-03-02T03:46:54;4.80;99.90
56256;DHT22;57229;51.432;-2.598;2024-03-02T03:49:19;5.10;99.90
56256;DHT22;57229;51.432;-2.598;2024-03-02T03:51:45;4.80;99.90
56256;DHT22;57229;51.432;-2.598;2024-03-02T03:54:10;4.80;99.90
56256;DHT22;57229;51.432;-2.598;2024-03-02T03:56:37;5.80;99.90
56256;DHT22;57229;51.432;-2.598;2024-03-02T03:59:02;4.70;99.90
56256;DHT22;57229;51.432;-2.598;2024-03-02T04:01:28;4.80;99.90
56256;DHT22;57229;51.432;-2.598;2024-03-02T04:03:54;4.80;99.90
56256;DHT22;57229;51.432;-2.598;2024-03-02T04:06:19;4.90;99.90
56256;DHT22;57229;51.432;-2.598;2024-03-02T04:08:45;4.80;99.90
56256;DHT22;57229;51.432;-2.598;2024-03-02T04:11:11;4.80;99.90
56256;DHT22;57229;51.432;-2.598;2024-03-02T04:13:36;4.70;99.90
56256;DHT22;57229;51.432;-2.598;2024-03-02T04:16:02;4.70;99.90
56256;DHT22;57229;51.432;-2.598;2024-03-02T04:18:29;4.60;99.90
56256;DHT22;57229;51.432;-2.598;2024-03-02T04:20:54;4.50;99.90
56256;DHT22;57229;51.432;-2.598;2024-03-02T04:23:20;4.40;99.90
56256;DHT22;57229;51.432;-2.598;2024-03-02T04:25:45;4.30;99.90
56256;DHT22;57229;51.432;-2.598;2024-03-02T04:28:11;4.30;99.90
56256;DHT22;57229;51.432;-2.598;2024-03-02T04:30:38;4.20;99.90
56256;DHT22;57229;51.432;-2.598;2024-03-02T04:33:04;4.10;99.90
56256;DHT22;57229;51.432;-2.598;2024-03-02T04:35:31;4.00;99.90
56256;DHT22;57229;51.432;-2.598;2024-03-02T04:37:56;3.90;99.90
56256;DHT22;57229;51.432;-2.598;2024-03-02T04:40:22;3.90;99.90
56256;DHT22;57229;51.432;-2.598;2024-03-02T04:42:47;3.90;99.90
56256;DHT22;57229;51.432;-2.598;2024-03-02T04:45:13;3.90;99.90
56256;DHT22;57229;51.432;-2.598;2024-03-02T04:47:38;3.80;99.90
56256;DHT22;57229;51.432;-2.598;2024-03-02T04:50:04;3.70;99.90
56256;DHT22;57229;51.432;-2.598;2024-03-02T04:52:31;3.70;99.90
56256;DHT22;57229;51.432;-2.598;2024-03-02T04:54:56;3.70;99.90
56256;DHT22;57229;51.432;-2.598;2024-03-02T04:57:40;3.70;99.90
56256;DHT22;57229;51.432;-2.598;2024-03-02T05:00:07;3.60;99.90
56256;DHT22;57229;51.432;-2.598;2024-03-02T05:02:34;3.60;99.90
56256;DHT22;57229;51.432;-2.598;2024-03-02T05:04:59;3.60;99.90
56256;DHT22;57229;51.432;-2.598;2024-03-02T05:07:25;3.60;99.90
56256;DHT22;57229;51.432;-2.598;2024-03-02T05:09:51;3.50;99.90
56256;DHT22;57229;51.432;-2.598;2024-03-02T05:12:16;3.50;99.90
56256;DHT22;57229;51.432;-2.598;2024-03-02T05:15:01;3.40;99.90
56256;DHT22;57229;51.432;-2.598;2024-03-02T05:17:27;3.30;99.90
56256;DHT22;57229;51.432;-2.598;2024-03-02T05:19:53;3.20;99.90
56256;DHT22;57229;51.432;-2.598;2024-03-02T05:22:18;3.10;99.90
56256;DHT22;57229;51.432;-2.598;2024-03-02T05:24:44;3.10;99.90
56256;DHT22;57229;51.432;-2.598;2024-03-02T05:27:09;3.10;99.90
56256;DHT22;57229;51.432;-2.598;2024-03-02T05:29:35;3.10;99.90
56256;DHT22;57229;51.432;-2.598;2024-03-02T05:32:00;3.00;99.90
56256;DHT22;57229;51.432;-2.598;2024-03-02T05:34:26;2.90;99.90
56256;DHT22;57229;51.432;-2.598;2024-03-02T05:36:51;3.00;99.90
56256;DHT22;57229;51.432;-2.598;2024-03-02T05:39:17;3.00;99.90
56256;DHT22;57229;51.432;-2.598;2024-03-02T05:41:43;2.90;99.90
56256;DHT22;57229;51.432;-2.598;2024-03-02T05:44:08;3.00;99.90
56256;DHT22;57229;51.432;-2.598;2024-03-02T05:46:34;2.90;99.90
56256;DHT22;57229;51.432;-2.598;2024-03-02T05:49:00;3.40;99.90
56256;DHT22;57229;51.432;-2.598;2024-03-02T05:51:26;2.90;99.90
56256;DHT22;57229;51.432;-2.598;2024-03-02T05:53:51;2.90;99.90
56256;DHT22;57229;51.432;-2.598;2024-03-02T05:56:17;2.80;99.90
56256;DHT22;57229;51.432;-2.598;2024-03-02T05:58:43;2.90;99.90
56256;DHT22;57229;51.432;-2.598;2024-03-02T06:01:27;2.90;99.90
56256;DHT22;57229;51.432;-2.598;2024-03-02T06:03:56;2.80;99.90
56256;DHT22;57229;51.432;-2.598;2024-03-02T06:06:26;3.00;99.90
56256;DHT22;57229;51.432;-2.598;2024-03-02T06:08:52;2.80;99.90
56256;DHT22;57229;51.432;-2.598;2024-03-02T06:11:19;2.60;99.90
56256;DHT22;57229;51.432;-2.598;2024-03-02T06:13:45;2.60;99.90
56256;DHT22;57229;51.432;-2.598;2024-03-02T06:16:11;2.50;99.90
56256;DHT22;57229;51.432;-2.598;2024-03-02T06:18:36;2.50;99.90
56256;DHT22;57229;51.432;-2.598;2024-03-02T06:21:03;2.50;99.90
56256;DHT22;57229;51.432;-2.598;2024-03-02T06:23:28;2.60;99.90
56256;DHT22;57229;51.432;-2.598;2024-03-02T06:25:54;2.60;99.90
56256;DHT22;57229;51.432;-2.598;2024-03-02T06:28:19;2.70;99.90
56256;DHT22;57229;51.432;-2.598;2024-03-02T06:30:46;2.70;99.90
56256;DHT22;57229;51.432;-2.598;2024-03-02T06:33:12;2.80;99.90
56256;DHT22;57229;51.432;-2.598;2024-03-02T06:35:37;2.80;99.90
56256;DHT22;57229;51.432;-2.598;2024-03-02T06:38:03;2.80;99.90
56256;DHT22;57229;51.432;-2.598;2024-03-02T06:40:29;2.80;99.90
56256;DHT22;57229;51.432;-2.598;2024-03-02T06:42:54;2.80;99.90
56256;DHT22;57229;51.432;-2.598;2024-03-02T06:45:20;2.80;99.90
56256;DHT22;57229;51.432;-2.598;2024-03-02T06:48:49;2.80;99.90
56256;DHT22;57229;51.432;-2.598;2024-03-02T06:50:58;2.80;99.90
56256;DHT22;57229;51.432;-2.598;2024-03-02T06:53:24;2.80;99.90
56256;DHT22;57229;51.432;-2.598;2024-03-02T06:55:49;2.90;99.90
56256;DHT22;57229;51.432;-2.598;2024-03-02T06:58:15;2.90;99.90
56256;DHT22;57229;51.432;-2.598;2024-03-02T07:00:44;2.90;99.90
56256;DHT22;57229;51.432;-2.598;2024-03-02T07:03:10;2.90;99.90
56256;DHT22;57229;51.432;-2.598;2024-03-02T07:05:35;2.90;99.90
56256;DHT22;57229;51.432;-2.598;2024-03-02T07:08:01;2.80;99.90
56256;DHT22;57229;51.432;-2.598;2024-03-02T07:10:28;2.90;99.90
56256;DHT22;57229;51.432;-2.598;2024-03-02T07:12:53;2.90;99.90
56256;DHT22;57229;51.432;-2.598;2024-03-02T07:15:19;3.00;99.90
56256;DHT22;57229;51.432;-2.598;2024-03-02T07:17:53;2.90;99.90
56256;DHT22;57229;51.432;-2.598;2024-03-02T07:20:19;3.00;99.90
56256;DHT22;57229;51.432;-2.598;2024-03-02T07:22:45;3.00;99.90
56256;DHT22;57229;51.432;-2.598;2024-03-02T07:25:13;3.10;99.90
56256;DHT22;57229;51.432;-2.598;2024-03-02T07:27:39;3.10;99.90
56256;DHT22;57229;51.432;-2.598;2024-03-02T07:30:06;3.90;99.90
56256;DHT22;57229;51.432;-2.598;2024-03-02T07:32:32;3.20;99.90
56256;DHT22;57229;51.432;-2.598;2024-03-02T07:34:57;3.20;99.90
56256;DHT22;57229;51.432;-2.598;2024-03-02T07:37:23;3.30;99.90
56256;DHT22;57229;51.432;-2.598;2024-03-02T07:39:49;3.40;99.90
56256;DHT22;57229;51.432;-2.598;2024-03-02T07:42:15;3.50;99.90
56256;DHT22;57229;51.432;-2.598;2024-03-02T07:44:41;3.50;99.90
56256;DHT22;57229;51.432;-2.598;2024-03-02T07:47:07;3.60;99.90
56256;DHT22;57229;51.432;-2.598;2024-03-02T07:49:33;3.70;99.90
56256;DHT22;57229;51.432;-2.598;2024-03-02T07:51:58;3.70;99.90
56256;DHT22;57229;51.432;-2.598;2024-03-02T07:54:24;3.80;99.90
56256;DHT22;57229;51.432;-2.598;2024-03-02T07:56:49;3.80;99.90
56256;DHT22;57229;51.432;-2.598;2024-03-02T07:59:15;3.90;99.90
56256;DHT22;57229;51.432;-2.598;2024-03-02T08:01:41;4.10;99.90
56256;DHT22;57229;51.432;-2.598;2024-03-02T08:04:07;4.10;99.90
56256;DHT22;57229;51.432;-2.598;2024-03-02T08:06:32;4.20;99.90
56256;DHT22;57229;51.432;-2.598;2024-03-02T08:08:59;4.20;99.90
56256;DHT22;57229;51.432;-2.598;2024-03-02T08:11:26;4.20;99.90
56256;DHT22;57229;51.432;-2.598;2024-03-02T08:13:53;4.30;99.90
56256;DHT22;57229;51.432;-2.598;2024-03-02T08:16:22;4.30;99.90
56256;DHT22;57229;51.432;-2.598;2024-03-02T08:18:48;4.40;99.90
56256;DHT22;57229;51.432;-2.598;2024-03-02T08:21:14;4.40;99.90
56256;DHT22;57229;51.432;-2.598;2024-03-02T08:23:40;4.40;99.90
56256;DHT22;57229;51.432;-2.598;2024-03-02T08:26:08;4.50;99.90
56256;DHT22;57229;51.432;-2.598;2024-03-02T08:28:46;4.60;99.90
56256;DHT22;57229;51.432;-2.598;2024-03-02T08:31:38;4.70;99.90
56256;DHT22;57229;51.432;-2.598;2024-03-02T08:34:04;4.70;99.90
56256;DHT22;57229;51.432;-2.598;2024-03-02T08:36:29;5.10;99.90
56256;DHT22;57229;51.432;-2.598;2024-03-02T08:38:55;5.80;99.90
56256;DHT22;57229;51.432;-2.598;2024-03-02T08:41:22;4.70;99.90
56256;DHT22;57229;51.432;-2.598;2024-03-02T08:43:47;4.70;99.90
56256;DHT22;57229;51.432;-2.598;2024-03-02T08:46:13;6.10;99.90
56256;DHT22;57229;51.432;-2.598;2024-03-02T08:48:39;4.90;99.90
56256;DHT22;57229;51.432;-2.598;2024-03-02T08:51:05;5.00;99.90
56256;DHT22;57229;51.432;-2.598;2024-03-02T08:53:33;5.00;99.90
56256;DHT22;57229;51.432;-2.598;2024-03-02T08:55:59;5.00;99.90
56256;DHT22;57229;51.432;-2.598;2024-03-02T08:58:24;5.00;99.90
56256;DHT22;57229;51.432;-2.598;2024-03-02T09:00:50;5.10;99.90
56256;DHT22;57229;51.432;-2.598;2024-03-02T09:03:16;5.20;99.90
56256;DHT22;57229;51.432;-2.598;2024-03-02T09:05:41;5.20;99.90
56256;DHT22;57229;51.432;-2.598;2024-03-02T09:08:08;5.20;99.90
56256;DHT22;57229;51.432;-2.598;2024-03-02T09:10:34;5.10;99.90
56256;DHT22;57229;51.432;-2.598;2024-03-02T09:13:00;5.20;99.90
56256;DHT22;57229;51.432;-2.598;2024-03-02T09:15:25;5.20;99.90
56256;DHT22;57229;51.432;-2.598;2024-03-02T09:17:51;5.30;99.90
56256;DHT22;57229;51.432;-2.598;2024-03-02T09:20:16;5.30;99.90
56256;DHT22;57229;51.432;-2.598;2024-03-02T09:22:42;5.40;99.90
56256;DHT22;57229;51.432;-2.598;2024-03-02T09:25:08;5.40;99.90
56256;DHT22;57229;51.432;-2.598;2024-03-02T09:27:36;5.40;99.90
56256;DHT22;57229;51.432;-2.598;2024-03-02T09:30:04;5.40;99.90
56256;DHT22;57229;51.432;-2.598;2024-03-02T09:32:31;5.40;99.90
56256;DHT22;57229;51.432;-2.598;2024-03-02T09:34:59;6.60;99.90
56256;DHT22;57229;51.432;-2.598;2024-03-02T09:37:24;5.30;99.90
56256;DHT22;57229;51.432;-2.598;2024-03-02T09:39:50;5.40;99.90
56256;DHT22;57229;51.432;-2.598;2024-03-02T09:42:17;5.40;99.90
56256;DHT22;57229;51.432;-2.598;2024-03-02T09:44:43;5.30;99.90
56256;DHT22;57229;51.432;-2.598;2024-03-02T09:47:09;5.20;99.90
56256;DHT22;57229;51.432;-2.598;2024-03-02T09:49:35;5.20;99.90
56256;DHT22;57229;51.432;-2.598;2024-03-02T09:52:03;5.30;99.90
56256;DHT22;57229;51.432;-2.598;2024-03-02T09:54:30;5.30;99.90
56256;DHT22;57229;51.432;-2.598;2024-03-02T09:56:55;5.30;99.90
56256;DHT22;57229;51.432;-2.598;2024-03-02T09:59:21;5.30;99.90
56256;DHT22;57229;51.432;-2.598;2024-03-02T10:02:00;5.30;99.90
56256;DHT22;57229;51.432;-2.598;2024-03-02T10:05:02;5.10;99.90
56256;DHT22;57229;51.432;-2.598;2024-03-02T10:08:01;5.70;99.90
56256;DHT22;57229;51.432;-2.598;2024-03-02T10:10:35;5.00;99.90
56256;DHT22;57229;51.432;-2.598;2024-03-02T10:13:05;4.90;99.90
56256;DHT22;57229;51.432;-2.598;2024-03-02T10:15:31;5.00;99.90
56256;DHT22;57229;51.432;-2.598;2024-03-02T10:17:56;5.10;99.90
56256;DHT22;57229;51.432;-2.598;2024-03-02T10:20:27;5.00;99.90
56256;DHT22;57229;51.432;-2.598;2024-03-02T10:23:16;5.10;99.90
56256;DHT22;57229;51.432;-2.598;2024-03-02T10:25:43;5.10;99.90
56256;DHT22;57229;51.432;-2.598;2024-03-02T10:28:11;5.30;99.90
56256;DHT22;57229;51.432;-2.598;2024-03-02T10:30:36;5.50;99.90
56256;DHT22;57229;51.432;-2.598;2024-03-02T10:33:03;5.60;99.90
56256;DHT22;57229;51.432;-2.598;2024-03-02T10:35:29;5.70;99.90
56256;DHT22;57229;51.432;-2.598;2024-03-02T10:37:59;5.60;99.90
56256;DHT22;57229;51.432;-2.598;2024-03-02T10:40:25;6.20;99.90
56256;DHT22;57229;51.432;-2.598;2024-03-02T10:42:51;5.40;99.90
56256;DHT22;57229;51.432;-2.598;2024-03-02T10:45:19;5.20;99.90
56256;DHT22;57229;51.432;-2.598;2024-03-02T10:47:47;5.00;99.90
56256;DHT22;57229;51.432;-2.598;2024-03-02T10:50:13;5.80;99.90
56256;DHT22;57229;51.432;-2.598;2024-03-02T10:52:38;5.20;99.90
56256;DHT22;57229;51.432;-2.598;2024-03-02T10:55:05;5.40;99.90
56256;DHT22;57229;51.432;-2.598;2024-03-02T10:57:40;5.50;99.90
56256;DHT22;57229;51.432;-2.598;2024-03-02T11:00:08;5.80;99.90
56256;DHT22;57229;51.432;-2.598;2024-03-02T11:02:50;5.70;99.90
56256;DHT22;57229;51.432;-2.598;2024-03-02T11:05:28;5.60;99.90
56256;DHT22;57229;51.432;-2.598;2024-03-02T11:08:01;5.60;99.90
56256;DHT22;57229;51.432;-2.598;2024-03-02T11:10:50;5.50;99.90
56256;DHT22;57229;51.432;-2.598;2024-03-02T11:13:42;5.30;99.90
56256;DHT22;57229;51.432;-2.598;2024-03-02T11:16:29;5.20;99.90
56256;DHT22;57229;51.432;-2.598;2024-03-02T11:19:02;5.00;99.90
56256;DHT22;57229;51.432;-2.598;2024-03-02T11:21:28;5.00;99.90
56256;DHT22;57229;51.432;-2.598;2024-03-02T11:23:54;4.90;99.90
56256;DHT22;57229;51.432;-2.598;2024-03-02T11:26:22;6.30;99.90
56256;DHT22;57229;51.432;-2.598;2024-03-02T11:28:50;4.70;99.90
56256;DHT22;57229;51.432;-2.598;2024-03-02T11:31:16;4.80;99.90
56256;DHT22;57229;51.432;-2.598;2024-03-02T11:33:42;4.70;99.90
56256;DHT22;57229;51.432;-2.598;2024-03-02T11:36:09;4.70;99.90
56256;DHT22;57229;51.432;-2.598;2024-03-02T11:38:35;4.60;99.90
56256;DHT22;57229;51.432;-2.598;2024-03-02T11:41:10;4.60;99.90
56256;DHT22;57229;51.432;-2.598;2024-03-02T11:43:40;5.10;99.90
56256;DHT22;57229;51.432;-2.598;2024-03-02T11:46:09;4.30;99.90
56256;DHT22;57229;51.432;-2.598;2024-03-02T11:48:54;4.20;99.90
56256;DHT22;57229;51.432;-2.598;2024-03-02T11:51:22;6.00;99.90
56256;DHT22;57229;51.432;-2.598;2024-03-02T11:53:48;4.00;99.90
56256;DHT22;57229;51.432;-2.598;2024-03-02T11:56:21;3.90;99.90
56256;DHT22;57229;51.432;-2.598;2024-03-02T11:58:47;3.90;99.90
56256;DHT22;57229;51.432;-2.598;2024-03-02T12:01:14;3.90;99.90
56256;DHT22;57229;51.432;-2.598;2024-03-02T12:03:40;3.90;99.90
56256;DHT22;57229;51.432;-2.598;2024-03-02T12:06:07;3.90;99.90
56256;DHT22;57229;51.432;-2.598;2024-03-02T12:08:32;3.90;99.90
56256;DHT22;57229;51.432;-2.598;2024-03-02T12:11:00;4.00;99.90
56256;DHT22;57229;51.432;-2.598;2024-03-02T12:13:26;4.00;99.90
56256;DHT22;57229;51.432;-2.598;2024-03-02T12:15:55;4.10;99.90
56256;DHT22;57229;51.432;-2.598;2024-03-02T12:18:21;4.10;99.90
56256;DHT22;57229;51.432;-2.598;2024-03-02T12:20:49;4.20;99.90
56256;DHT22;57229;51.432;-2.598;2024-03-02T12:23:18;4.30;99.90
56256;DHT22;57229;51.432;-2.598;2024-03-02T12:25:45;4.40;99.90
56256;DHT22;57229;51.432;-2.598;2024-03-02T12:28:11;4.50;99.90
56256;DHT22;57229;51.432;-2.598;2024-03-02T12:30:36;4.50;99.90
56256;DHT22;57229;51.432;-2.598;2024-03-02T12:33:02;6.20;99.90
56256;DHT22;57229;51.432;-2.598;2024-03-02T12:35:28;4.50;99.90
56256;DHT22;57229;51.432;-2.598;2024-03-02T12:37:54;4.60;99.90
56256;DHT22;57229;51.432;-2.598;2024-03-02T12:40:21;4.60;99.90
56256;DHT22;57229;51.432;-2.598;2024-03-02T12:42:48;4.60;99.90
56256;DHT22;57229;51.432;-2.598;2024-03-02T12:45:16;4.60;99.90
56256;DHT22;57229;51.432;-2.598;2024-03-02T12:47:49;4.70;99.90
56256;DHT22;57229;51.432;-2.598;2024-03-02T12:50:15;4.60;99.90
56256;DHT22;57229;51.432;-2.598;2024-03-02T12:52:41;5.70;99.90
56256;DHT22;57229;51.432;-2.598;2024-03-02T12:55:07;4.50;99.90
56256;DHT22;57229;51.432;-2.598;2024-03-02T12:57:34;4.60;99.90
56256;DHT22;57229;51.432;-2.598;2024-03-02T13:00:00;4.60;99.90
56256;DHT22;57229;51.432;-2.598;2024-03-02T13:02:30;4.80;99.90
56256;DHT22;57229;51.432;-2.598;2024-03-02T13:04:58;4.80;99.90
56256;DHT22;57229;51.432;-2.598;2024-03-02T13:07:24;4.80;99.90
56256;DHT22;57229;51.432;-2.598;2024-03-02T13:09:55;4.70;99.90
56256;DHT22;57229;51.432;-2.598;2024-03-02T13:12:22;4.70;99.90
56256;DHT22;57229;51.432;-2.598;2024-03-02T13:14:49;4.60;99.90
56256;DHT22;57229;51.432;-2.598;2024-03-02T13:17:18;4.60;99.90
56256;DHT22;57229;51.432;-2.598;2024-03-02T13:19:58;4.70;99.90
56256;DHT22;57229;51.432;-2.598;2024-03-02T13:22:25;4.60;99.90
56256;DHT22;57229;51.432;-2.598;2024-03-02T13:24:51;4.70;99.90
56256;DHT22;57229;51.432;-2.598;2024-03-02T13:27:17;4.80;99.90
56256;DHT22;57229;51.432;-2.598;2024-03-02T13:29:47;4.70;99.90
56256;DHT22;57229;51.432;-2.598;2024-03-02T13:32:13;4.80;99.90
56256;DHT22;57229;51.432;-2.598;2024-03-02T13:34:39;4.90;99.90
56256;DHT22;57229;51.432;-2.598;2024-03-02T13:37:05;5.00;99.90
56256;DHT22;57229;51.432;-2.598;2024-03-02T13:39:31;5.10;99.90
56256;DHT22;57229;51.432;-2.598;2024-03-02T13:42:00;5.20;99.90
56256;DHT22;57229;51.432;-2.598;2024-03-02T13:44:31;5.20;99.90
56256;DHT22;57229;51.432;-2.598;2024-03-02T13:46:57;6.20;99.90
56256;DHT22;57229;51.432;-2.598;2024-03-02T13:49:23;5.30;99.90
56256;DHT22;57229;51.432;-2.598;2024-03-02T13:51:49;5.30;99.90
56256;DHT22;57229;51.432;-2.598;2024-03-02T13:54:15;5.30;99.90
56256;DHT22;57229;51.432;-2.598;2024-03-02T13:56:41;5.40;99.90
56256;DHT22;57229;51.432;-2.598;2024-03-02T13:59:07;5.30;99.90
56256;DHT22;57229;51.432;-2.598;2024-03-02T14:01:33;5.30;99.90
56256;DHT22;57229;51.432;-2.598;2024-03-02T14:03:59;5.40;99.90
56256;DHT22;57229;51.432;-2.598;2024-03-02T14:06:24;5.60;99.90
56256;DHT22;57229;51.432;-2.598;2024-03-02T14:08:52;6.20;99.90
56256;DHT22;57229;51.432;-2.598;2024-03-02T14:11:18;6.50;99.90
56256;DHT22;57229;51.432;-2.598;2024-03-02T14:13:44;6.60;99.90
56256;DHT22;57229;51.432;-2.598;2024-03-02T14:16:15;6.50;99.90
56256;DHT22;57229;51.432;-2.598;2024-03-02T14:18:41;6.30;99.90
56256;DHT22;57229;51.432;-2.598;2024-03-02T14:21:08;6.30;99.90
56256;DHT22;57229;51.432;-2.598;2024-03-02T14:23:33;6.50;99.90
56256;DHT22;57229;51.432;-2.598;2024-03-02T14:25:59;6.50;99.90
56256;DHT22;57229;51.432;-2.598;2024-03-02T14:28:25;6.50;99.90
56256;DHT22;57229;51.432;-2.598;2024-03-02T14:30:50;6.40;99.90
56256;DHT22;57229;51.432;-2.598;2024-03-02T14:33:16;6.40;99.90
56256;DHT22;57229;51.432;-2.598;2024-03-02T14:35:42;6.50;99.90
56256;DHT22;57229;51.432;-2.598;2024-03-02T14:38:08;6.30;99.90
56256;DHT22;57229;51.432;-2.598;2024-03-02T14:40:33;6.20;99.90
56256;DHT22;57229;51.432;-2.598;2024-03-02T14:43:00;6.30;99.90
56256;DHT22;57229;51.432;-2.598;2024-03-02T14:45:25;6.80;99.90
56256;DHT22;57229;51.432;-2.598;2024-03-02T14:47:52;6.60;99.90
56256;DHT22;57229;51.432;-2.598;2024-03-02T14:50:18;7.80;99.90
56256;DHT22;57229;51.432;-2.598;2024-03-02T14:52:46;6.90;99.90
56256;DHT22;57229;51.432;-2.598;2024-03-02T14:55:12;7.00;99.90
56256;DHT22;57229;51.432;-2.598;2024-03-02T14:57:38;7.00;99.90
56256;DHT22;57229;51.432;-2.598;2024-03-02T15:00:04;7.00;99.90
56256;DHT22;57229;51.432;-2.598;2024-03-02T15:02:33;6.90;99.90
56256;DHT22;57229;51.432;-2.598;2024-03-02T15:04:59;7.00;99.90
56256;DHT22;57229;51.432;-2.598;2024-03-02T15:07:25;7.00;99.90
56256;DHT22;57229;51.432;-2.598;2024-03-02T15:09:50;7.00;99.90
56256;DHT22;57229;51.432;-2.598;2024-03-02T15:12:16;7.10;99.90
56256;DHT22;57229;51.432;-2.598;2024-03-02T15:14:43;7.00;99.90
56256;DHT22;57229;51.432;-2.598;2024-03-02T15:17:15;6.90;99.90
56256;DHT22;57229;51.432;-2.598;2024-03-02T15:19:42;6.90;99.90
56256;DHT22;57229;51.432;-2.598;2024-03-02T15:22:08;7.00;99.90
56256;DHT22;57229;51.432;-2.598;2024-03-02T15:24:34;7.20;99.90
56256;DHT22;57229;51.432;-2.598;2024-03-02T15:26:59;8.10;99.90
56256;DHT22;57229;51.432;-2.598;2024-03-02T15:29:25;8.50;99.90
56256;DHT22;57229;51.432;-2.598;2024-03-02T15:31:54;9.00;99.90
56256;DHT22;57229;51.432;-2.598;2024-03-02T15:34:20;9.70;99.90
56256;DHT22;57229;51.432;-2.598;2024-03-02T15:36:46;11.30;99.90